Terminal Aerodrome Forecast
Issued by NWS

Home | Current Version | Previous Version | Text Only | Print | Product List | Glossary On
Versions: 1 2 3 4 5 6 7 8 9 10 11 12 13
000
FTUS42 TJSJ 230528
TAFJBQ
TAF
TJBQ 230528Z 2306/2406 12005KT P6SM FEW060
     FM231300 04010KT P6SM FEW030 SCT060
     FM232300 12005KT P6SM SCT060
      AMD NOT SKED TIL 231100=

USA.gov is the U.S. government's official web portal to all federal, state and local government web resources and services.